createdAt,value
2019-05-11T00:01:52.171Z,4.73
2019-05-11T00:04:24.421Z,5.00
2019-05-11T00:06:56.607Z,4.90
2019-05-11T00:09:28.865Z,5.17
2019-05-11T00:12:01.079Z,5.10
2019-05-11T00:14:33.331Z,5.30
2019-05-11T00:17:05.588Z,5.27
2019-05-11T00:19:37.809Z,6.20
2019-05-11T00:22:11.359Z,6.13
2019-05-11T00:24:43.607Z,5.90
2019-05-11T00:27:16.066Z,6.80
2019-05-11T00:29:48.337Z,5.93
2019-05-11T00:32:22.808Z,7.30
2019-05-11T00:34:55.556Z,6.67
2019-05-11T00:37:27.766Z,6.27
2019-05-11T00:40:13.276Z,6.43
2019-05-11T00:42:33.988Z,7.40
2019-05-11T00:45:06.237Z,7.57
2019-05-11T00:47:39.508Z,7.33
2019-05-11T00:50:11.743Z,8.37
2019-05-11T00:52:43.778Z,8.37
2019-05-11T00:55:16.078Z,8.10
2019-05-11T00:57:48.342Z,8.60
2019-05-11T01:00:20.638Z,9.40
2019-05-11T01:02:52.969Z,7.40
2019-05-11T01:05:25.180Z,8.80
2019-05-11T01:07:57.403Z,8.10
2019-05-11T01:10:41.689Z,8.40
2019-05-11T01:13:03.539Z,7.83
2019-05-11T01:15:35.811Z,8.83
2019-05-11T01:18:08.095Z,8.73
2019-05-11T01:20:40.344Z,8.90
2019-05-11T01:23:12.615Z,7.37
2019-05-11T01:25:44.830Z,8.73
2019-05-11T01:28:17.129Z,8.07
2019-05-11T01:30:49.336Z,8.20
2019-05-11T01:33:21.568Z,8.67
2019-05-11T01:35:53.804Z,7.83
2019-05-11T01:38:28.014Z,8.40
2019-05-11T01:41:00.247Z,7.73
2019-05-11T01:43:32.449Z,7.70
2019-05-11T01:46:04.662Z,7.67
2019-05-11T01:48:36.899Z,7.70
2019-05-11T01:51:09.119Z,7.73
2019-05-11T01:53:41.323Z,7.73
2019-05-11T01:56:13.645Z,7.13
2019-05-11T01:58:45.851Z,7.33
2019-05-11T02:01:18.076Z,6.93
2019-05-11T02:03:50.295Z,6.53
2019-05-11T02:06:22.541Z,6.17
2019-05-11T02:08:54.778Z,6.63
2019-05-11T02:11:26.987Z,6.43
2019-05-11T02:13:59.191Z,5.90
2019-05-11T02:16:31.649Z,6.40
2019-05-11T02:19:03.874Z,5.50
2019-05-11T02:21:38.357Z,6.10
2019-05-11T02:24:10.573Z,6.00
2019-05-11T02:26:42.827Z,5.30
2019-05-11T02:29:15.029Z,6.03
2019-05-11T02:31:47.264Z,6.00
2019-05-11T02:34:19.551Z,5.93
2019-05-11T02:36:51.571Z,4.80
2019-05-11T02:39:23.792Z,5.83
2019-05-11T02:41:56.037Z,5.10
2019-05-11T02:44:28.275Z,5.30
2019-05-11T02:47:00.483Z,5.17
2019-05-11T02:49:33.030Z,5.13
2019-05-11T02:52:05.255Z,5.53
2019-05-11T02:54:37.462Z,5.43
2019-05-11T02:57:09.711Z,5.30
2019-05-11T02:59:41.925Z,4.77
2019-05-11T03:02:14.119Z,5.00
2019-05-11T03:04:46.416Z,5.00
2019-05-11T03:07:18.612Z,5.73
2019-05-11T03:09:50.816Z,5.43
2019-05-11T03:12:25.066Z,5.50
2019-05-11T03:14:57.302Z,5.33
2019-05-11T03:17:31.591Z,4.87
2019-05-11T03:20:03.797Z,5.50
2019-05-11T03:22:36.061Z,5.60
2019-05-11T03:25:08.261Z,5.00
2019-05-11T03:27:40.476Z,5.07
2019-05-11T03:30:12.749Z,5.40
2019-05-11T03:32:44.933Z,5.90
2019-05-11T03:35:16.993Z,6.13
2019-05-11T03:37:49.188Z,6.23
2019-05-11T03:40:21.436Z,5.80
2019-05-11T03:42:53.671Z,5.67
2019-05-11T03:45:25.888Z,5.77
2019-05-11T03:47:58.104Z,6.20
2019-05-11T03:50:32.455Z,6.73
2019-05-11T03:53:04.675Z,5.63
2019-05-11T03:55:36.876Z,6.10
2019-05-11T03:58:09.108Z,5.90
2019-05-11T04:00:41.329Z,6.33
2019-05-11T04:03:13.536Z,5.80
2019-05-11T04:05:45.783Z,6.27
2019-05-11T04:08:17.988Z,6.33
2019-05-11T04:10:50.222Z,6.13
2019-05-11T04:13:23.880Z,6.60
2019-05-11T04:15:56.131Z,5.97
2019-05-11T04:18:28.396Z,6.73
2019-05-11T04:21:00.566Z,6.37
2019-05-11T04:23:33.083Z,7.17
2019-05-11T04:26:07.564Z,6.83
2019-05-11T04:28:39.836Z,6.60
2019-05-11T04:31:12.076Z,7.37
2019-05-11T04:33:44.382Z,7.70
2019-05-11T04:36:16.648Z,7.33
2019-05-11T04:38:49.173Z,6.50
2019-05-11T04:41:21.422Z,6.73
2019-05-11T04:43:53.643Z,7.40
2019-05-11T04:46:25.855Z,7.10
2019-05-11T04:48:58.207Z,6.60
2019-05-11T04:51:30.474Z,7.87
2019-05-11T04:54:02.701Z,6.73
2019-05-11T04:56:34.987Z,6.80
2019-05-11T04:59:07.157Z,6.37
2019-05-11T05:01:39.703Z,6.87
2019-05-11T05:04:14.483Z,6.57
2019-05-11T05:06:58.834Z,6.30
2019-05-11T05:09:20.090Z,7.50
2019-05-11T05:11:52.348Z,6.60
2019-05-11T05:14:24.614Z,7.13
2019-05-11T05:16:56.830Z,7.00
2019-05-11T05:19:29.124Z,6.93
2019-05-11T05:22:01.375Z,7.00
2019-05-11T05:24:33.613Z,6.63
2019-05-11T05:27:05.848Z,6.03
2019-05-11T05:29:38.322Z,6.47
2019-05-11T05:32:10.532Z,7.10
2019-05-11T05:34:42.811Z,6.80
2019-05-11T05:37:15.085Z,6.33
2019-05-11T05:39:47.275Z,6.00
2019-05-11T05:42:19.495Z,6.93
2019-05-11T05:44:51.730Z,6.67
2019-05-11T05:47:23.973Z,6.07
2019-05-11T05:49:56.161Z,5.97
2019-05-11T05:52:28.413Z,6.17
2019-05-11T05:55:00.630Z,5.67
2019-05-11T05:57:32.868Z,6.53
2019-05-11T06:00:05.115Z,5.30
2019-05-11T06:02:37.405Z,6.30
2019-05-11T06:05:09.671Z,6.33
2019-05-11T06:07:43.908Z,6.10
2019-05-11T06:10:16.176Z,6.33
2019-05-11T06:12:48.401Z,5.77
2019-05-11T06:15:20.658Z,6.07
2019-05-11T06:17:52.920Z,6.37
2019-05-11T06:20:25.147Z,6.00
2019-05-11T06:22:57.389Z,6.57
2019-05-11T06:25:30.019Z,5.43
2019-05-11T06:28:02.208Z,5.70
2019-05-11T06:30:34.396Z,5.90
2019-05-11T06:33:06.666Z,6.17
2019-05-11T06:35:38.869Z,5.20
2019-05-11T06:38:11.104Z,5.83
2019-05-11T06:40:43.651Z,6.27
2019-05-11T06:43:17.895Z,5.90
2019-05-11T06:45:50.149Z,4.90
2019-05-11T06:48:23.802Z,5.07
2019-05-11T06:50:56.045Z,5.00
2019-05-11T06:53:28.278Z,4.97
2019-05-11T06:56:00.555Z,4.27
2019-05-11T06:58:32.755Z,4.67
2019-05-11T07:01:05.034Z,4.80
2019-05-11T07:03:37.295Z,4.73
2019-05-11T07:06:09.515Z,4.27
2019-05-11T07:08:42.035Z,5.10
2019-05-11T07:11:14.262Z,4.77
2019-05-11T07:13:46.589Z,4.97
2019-05-11T07:16:18.819Z,4.53
2019-05-11T07:18:51.031Z,4.63
2019-05-11T07:21:23.330Z,4.40
2019-05-11T07:23:55.536Z,5.30
2019-05-11T07:26:27.754Z,4.27
2019-05-11T07:29:00.028Z,4.70
2019-05-11T07:31:32.356Z,3.83
2019-05-11T07:34:04.564Z,5.13
2019-05-11T07:36:39.099Z,3.87
2019-05-11T07:39:11.613Z,3.97
2019-05-11T07:41:43.834Z,4.20
2019-05-11T07:44:16.043Z,3.83
2019-05-11T07:46:48.456Z,3.63
2019-05-11T07:49:23.430Z,5.17
2019-05-11T07:51:58.667Z,3.40
2019-05-11T07:54:31.206Z,3.60
2019-05-11T07:57:03.439Z,3.93
2019-05-11T07:59:38.004Z,4.00
2019-05-11T08:02:09.683Z,3.77
2019-05-11T08:04:41.930Z,4.03
2019-05-11T08:07:14.124Z,4.27
2019-05-11T08:09:48.282Z,3.87
2019-05-11T08:12:20.320Z,3.73
2019-05-11T08:15:02.968Z,3.83
2019-05-11T08:17:28.550Z,4.97
2019-05-11T08:20:00.519Z,3.63
2019-05-11T08:22:32.734Z,4.80
2019-05-11T08:25:05.194Z,4.33
2019-05-11T08:27:37.943Z,4.43
2019-05-11T08:30:10.196Z,4.27
2019-05-11T08:32:42.449Z,3.97
2019-05-11T08:35:15.029Z,3.90
2019-05-11T08:37:48.409Z,4.03
2019-05-11T08:40:20.691Z,3.90
2019-05-11T08:42:52.927Z,4.10
2019-05-11T08:45:27.738Z,4.87
2019-05-11T08:47:59.117Z,3.53
2019-05-11T08:50:32.584Z,3.97
2019-05-11T08:53:04.797Z,4.40
2019-05-11T08:55:38.223Z,3.97
2019-05-11T08:58:11.003Z,4.83
2019-05-11T09:00:43.338Z,4.50
2019-05-11T09:03:17.874Z,3.77
2019-05-11T09:05:49.753Z,4.50
2019-05-11T09:08:21.859Z,4.60
2019-05-11T09:10:54.277Z,4.20
2019-05-11T09:13:27.879Z,4.07
2019-05-11T09:16:00.482Z,4.00
2019-05-11T09:18:32.779Z,4.60
2019-05-11T09:21:08.166Z,4.17
2019-05-11T09:23:40.843Z,3.70
2019-05-11T09:26:13.267Z,4.07
2019-05-11T09:28:47.600Z,4.80
2019-05-11T09:31:19.653Z,4.70
2019-05-11T09:33:52.340Z,4.57
2019-05-11T09:36:24.656Z,4.63
2019-05-11T09:38:58.133Z,4.30
2019-05-11T09:41:30.550Z,4.70
2019-05-11T09:44:02.808Z,5.10
2019-05-11T09:46:35.005Z,4.30
2019-05-11T09:49:08.340Z,5.00
2019-05-11T09:51:40.576Z,4.53
2019-05-11T09:54:12.637Z,5.27
2019-05-11T09:56:44.923Z,5.33
2019-05-11T09:59:17.910Z,4.80
2019-05-11T10:01:50.430Z,4.73
2019-05-11T10:04:22.694Z,6.00
2019-05-11T10:06:54.931Z,5.23
2019-05-11T10:09:28.019Z,5.50
2019-05-11T10:12:00.407Z,5.70
2019-05-11T10:14:32.629Z,5.37
2019-05-11T10:17:07.595Z,5.67
2019-05-11T10:19:39.640Z,5.20
2019-05-11T10:22:11.978Z,5.33
2019-05-11T10:24:44.231Z,5.17
2019-05-11T10:27:18.733Z,5.47
2019-05-11T10:29:50.477Z,4.87
2019-05-11T10:32:22.761Z,5.17
2019-05-11T10:34:54.987Z,5.10
2019-05-11T10:37:28.290Z,4.83
2019-05-11T10:40:00.623Z,5.83
2019-05-11T10:42:32.857Z,4.17
2019-05-11T10:45:05.108Z,5.20
2019-05-11T10:47:38.206Z,4.37
2019-05-11T10:50:10.589Z,5.33
2019-05-11T10:52:42.812Z,4.37
2019-05-11T10:55:15.098Z,4.50
2019-05-11T10:57:49.363Z,4.30
2019-05-11T11:00:21.602Z,4.87
2019-05-11T11:02:53.860Z,4.60
2019-05-11T11:05:27.946Z,4.50
2019-05-11T11:08:00.065Z,4.30
2019-05-11T11:10:32.352Z,4.23
2019-05-11T11:13:04.809Z,4.20
2019-05-11T11:15:38.091Z,4.53
2019-05-11T11:18:10.573Z,4.13
2019-05-11T11:20:42.795Z,4.00
2019-05-11T11:23:17.236Z,3.97
2019-05-11T11:25:49.252Z,4.10
2019-05-11T11:28:21.507Z,3.40
2019-05-11T11:30:53.741Z,3.37
2019-05-11T11:33:27.708Z,3.83
2019-05-11T11:36:00.158Z,3.90
2019-05-11T11:38:32.348Z,3.53
2019-05-11T11:41:04.582Z,3.90
2019-05-11T11:43:37.770Z,3.13
2019-05-11T11:46:10.218Z,3.23
2019-05-11T11:48:43.552Z,3.30
2019-05-11T11:51:15.742Z,3.13
2019-05-11T11:53:48.227Z,3.30
2019-05-11T11:56:20.570Z,2.97
2019-05-11T11:58:52.798Z,2.90
2019-05-11T12:01:25.045Z,3.00
2019-05-11T12:03:58.115Z,3.23
2019-05-11T12:06:30.387Z,2.70
2019-05-11T12:09:02.609Z,3.07
2019-05-11T12:11:34.909Z,3.40
2019-05-11T12:14:08.675Z,3.10
2019-05-11T12:16:41.858Z,3.00
2019-05-11T12:19:14.756Z,2.70
2019-05-11T12:21:48.363Z,2.70
2019-05-11T12:24:21.436Z,2.70
2019-05-11T12:26:54.284Z,2.80
2019-05-11T12:29:28.181Z,2.90
2019-05-11T12:32:02.114Z,3.10
2019-05-11T12:34:35.027Z,3.00
2019-05-11T12:37:08.518Z,2.72
2019-05-11T12:39:41.621Z,2.67
2019-05-11T12:42:14.426Z,2.33
2019-05-11T12:44:48.158Z,3.08
2019-05-11T12:47:24.984Z,3.22
2019-05-11T12:49:55.587Z,2.60
2019-05-11T12:52:28.398Z,3.47
2019-05-11T12:55:01.243Z,2.55
2019-05-11T12:57:34.533Z,2.45
2019-05-11T13:00:08.609Z,2.85
2019-05-11T13:02:42.294Z,2.95
2019-05-11T13:05:15.103Z,3.08
2019-05-11T13:07:48.367Z,2.20
2019-05-11T13:10:21.426Z,2.40
2019-05-11T13:12:54.296Z,2.33
2019-05-11T13:15:28.123Z,2.67
2019-05-11T13:18:01.313Z,2.40
2019-05-11T13:20:34.178Z,2.87
2019-05-11T13:23:07.969Z,2.17
2019-05-11T13:25:42.039Z,2.10
2019-05-11T13:28:14.821Z,2.37
2019-05-11T13:30:48.819Z,1.92
2019-05-11T13:33:21.883Z,2.15
2019-05-11T13:35:54.703Z,2.45
2019-05-11T13:38:28.278Z,2.20
2019-05-11T13:41:01.426Z,2.55
2019-05-11T13:43:34.243Z,1.80
2019-05-11T13:46:08.764Z,1.85
2019-05-11T13:48:41.438Z,1.80
2019-05-11T13:51:14.281Z,1.82
2019-05-11T13:53:48.256Z,2.40
2019-05-11T13:56:21.226Z,2.35
2019-05-11T13:58:54.109Z,1.67
2019-05-11T14:01:27.862Z,2.45
2019-05-11T14:04:00.305Z,2.27
2019-05-11T14:06:32.545Z,2.70
2019-05-11T14:09:04.769Z,2.20
2019-05-11T14:11:39.074Z,2.53
2019-05-11T14:14:11.009Z,2.33
2019-05-11T14:16:43.255Z,2.67
2019-05-11T14:19:17.590Z,2.40
2019-05-11T14:21:49.415Z,2.60
2019-05-11T14:24:22.694Z,2.87
2019-05-11T14:26:54.944Z,2.20
2019-05-11T14:29:28.435Z,2.20
2019-05-11T14:32:00.883Z,2.20
2019-05-11T14:34:33.203Z,2.50
2019-05-11T14:37:05.406Z,2.67
2019-05-11T14:39:38.322Z,2.53
2019-05-11T14:42:10.813Z,2.40
2019-05-11T14:44:43.029Z,2.20
2019-05-11T14:47:17.749Z,2.27
2019-05-11T14:49:49.240Z,2.10
2019-05-11T14:52:21.494Z,2.43
2019-05-11T14:54:53.712Z,2.20
2019-05-11T14:57:27.856Z,2.43
2019-05-11T14:59:59.881Z,2.20
2019-05-11T15:02:32.109Z,1.83
2019-05-11T15:05:05.305Z,2.20
2019-05-11T15:07:38.692Z,2.10
2019-05-11T15:10:10.947Z,2.27
2019-05-11T15:12:43.158Z,2.37
2019-05-11T15:15:15.381Z,2.40
2019-05-11T15:17:49.232Z,2.03
2019-05-11T15:20:21.771Z,2.20
2019-05-11T15:22:54.083Z,2.33
2019-05-11T15:25:28.649Z,2.27
2019-05-11T15:28:00.259Z,1.97
2019-05-11T15:30:32.677Z,2.00
2019-05-11T15:33:04.920Z,2.00
2019-05-11T15:35:37.869Z,1.90
2019-05-11T15:38:10.174Z,2.60
2019-05-11T15:40:43.597Z,2.33
2019-05-11T15:43:17.765Z,2.73
2019-05-11T15:45:49.739Z,2.33
2019-05-11T15:48:21.968Z,2.20
2019-05-11T15:50:54.169Z,2.93
2019-05-11T15:53:26.429Z,2.63
2019-05-11T15:55:59.843Z,2.30
2019-05-11T15:58:32.524Z,2.07
2019-05-11T16:01:04.878Z,2.07
2019-05-11T16:03:37.227Z,2.17
2019-05-11T16:06:09.472Z,2.00
2019-05-11T16:08:41.691Z,1.43
2019-05-11T16:11:13.966Z,2.63
2019-05-11T16:13:48.335Z,2.20
2019-05-11T16:16:20.177Z,2.57
2019-05-11T16:18:52.438Z,2.30
2019-05-11T16:21:24.682Z,1.70
2019-05-11T16:23:58.475Z,1.90
2019-05-11T16:26:30.961Z,2.73
2019-05-11T16:29:03.259Z,1.70
2019-05-11T16:31:37.734Z,1.50
2019-05-11T16:34:09.466Z,1.77
2019-05-11T16:36:41.759Z,1.90
2019-05-11T16:39:14.024Z,1.70
2019-05-11T16:41:48.598Z,2.00
2019-05-11T16:44:20.637Z,2.37
2019-05-11T16:46:52.914Z,2.00
2019-05-11T16:49:28.908Z,1.50
2019-05-11T16:51:59.042Z,1.73
2019-05-11T16:54:31.295Z,1.97
2019-05-11T16:57:03.534Z,1.63
2019-05-11T16:59:39.588Z,1.30
2019-05-11T17:02:10.761Z,1.83
2019-05-11T17:04:43.191Z,1.70
2019-05-11T17:07:15.390Z,1.70
2019-05-11T17:09:48.303Z,1.40
2019-05-11T17:12:20.550Z,1.70
2019-05-11T17:14:54.128Z,1.50
2019-05-11T17:17:27.790Z,1.43
2019-05-11T17:20:00.178Z,5.00
2019-05-11T17:22:32.395Z,1.77
2019-05-11T17:25:04.745Z,1.67
2019-05-11T17:27:37.662Z,1.40
2019-05-11T17:30:10.234Z,1.23
2019-05-11T17:32:42.498Z,1.40
2019-05-11T17:35:14.932Z,1.73
2019-05-11T17:37:48.635Z,1.40
2019-05-11T17:40:23.472Z,1.40
2019-05-11T17:42:58.362Z,1.63
2019-05-11T17:45:31.132Z,1.50
2019-05-11T17:48:03.396Z,1.70
2019-05-11T17:50:35.638Z,1.50
2019-05-11T17:53:07.842Z,1.50
2019-05-11T17:55:40.099Z,1.30
2019-05-11T17:58:12.299Z,1.40
2019-05-11T18:00:44.574Z,1.47
2019-05-11T18:03:16.849Z,1.40
2019-05-11T18:05:49.044Z,1.37
2019-05-11T18:08:21.265Z,1.20
2019-05-11T18:10:53.506Z,1.37
2019-05-11T18:13:28.120Z,1.30
2019-05-11T18:15:59.685Z,1.30
2019-05-11T18:18:32.146Z,1.30
2019-05-11T18:21:04.376Z,1.60
2019-05-11T18:23:38.708Z,1.10
2019-05-11T18:26:10.887Z,2.00
2019-05-11T18:28:42.959Z,2.03
2019-05-11T18:31:15.188Z,1.57
2019-05-11T18:33:48.742Z,2.97
2019-05-11T18:36:21.082Z,1.60
2019-05-11T18:38:53.379Z,1.50
2019-05-11T18:41:28.143Z,1.47
2019-05-11T18:43:59.664Z,1.67
2019-05-11T18:46:31.925Z,1.37
2019-05-11T18:49:04.151Z,1.60
2019-05-11T18:51:37.917Z,1.50
2019-05-11T18:54:10.336Z,1.33
2019-05-11T18:56:42.573Z,1.37
2019-05-11T18:59:14.782Z,1.53
2019-05-11T19:01:48.525Z,1.63
2019-05-11T19:04:20.903Z,1.20
2019-05-11T19:06:53.173Z,2.13
2019-05-11T19:09:25.435Z,1.43
2019-05-11T19:11:57.842Z,1.60
2019-05-11T19:14:30.155Z,1.50
2019-05-11T19:17:02.376Z,1.33
2019-05-11T19:19:37.997Z,1.93
2019-05-11T19:22:10.286Z,1.40
2019-05-11T19:24:42.490Z,1.90
2019-05-11T19:27:14.744Z,1.50
2019-05-11T19:29:48.379Z,1.60
2019-05-11T19:32:20.814Z,1.77
2019-05-11T19:34:53.269Z,1.80
2019-05-11T19:37:27.729Z,1.50
2019-05-11T19:39:59.405Z,2.40
2019-05-11T19:42:32.695Z,1.43
2019-05-11T19:45:05.006Z,1.70
2019-05-11T19:47:37.848Z,1.57
2019-05-11T19:50:10.605Z,1.57
2019-05-11T19:52:43.025Z,1.40
2019-05-11T19:55:17.365Z,1.40
2019-05-11T19:57:49.177Z,1.80
2019-05-11T20:00:21.439Z,1.43
2019-05-11T20:02:53.692Z,1.80
2019-05-11T20:05:25.876Z,1.77
2019-05-11T20:07:58.718Z,1.60
2019-05-11T20:10:31.141Z,1.77
2019-05-11T20:13:03.430Z,1.40
2019-05-11T20:15:37.941Z,1.30
2019-05-11T20:18:09.528Z,1.53
2019-05-11T20:20:41.742Z,1.30
2019-05-11T20:23:14.034Z,1.57
2019-05-11T20:25:47.772Z,2.40
2019-05-11T20:28:21.225Z,2.00
2019-05-11T20:30:53.473Z,2.00
2019-05-11T20:33:27.819Z,2.00
2019-05-11T20:35:59.739Z,2.03
2019-05-11T20:38:32.379Z,1.40
2019-05-11T20:41:04.680Z,1.90
2019-05-11T20:43:36.899Z,2.23
2019-05-11T20:46:09.150Z,2.00
2019-05-11T20:48:41.354Z,1.90
2019-05-11T20:51:15.102Z,2.00
2019-05-11T20:53:48.978Z,2.07
2019-05-11T20:56:21.289Z,1.80
2019-05-11T20:58:53.521Z,2.03
2019-05-11T21:01:28.307Z,1.80
2019-05-11T21:03:59.689Z,2.17
2019-05-11T21:06:32.005Z,2.07
2019-05-11T21:09:04.228Z,1.90
2019-05-11T21:11:36.445Z,2.17
2019-05-11T21:14:08.664Z,2.07
2019-05-11T21:16:40.986Z,1.60
2019-05-11T21:19:13.263Z,1.60
2019-05-11T21:21:52.632Z,1.90
2019-05-11T21:24:19.437Z,1.60
2019-05-11T21:26:51.652Z,1.57
2019-05-11T21:29:23.839Z,2.00
2019-05-11T21:31:56.094Z,2.80
2019-05-11T21:34:28.356Z,2.20
2019-05-11T21:37:00.562Z,1.40
2019-05-11T21:39:32.813Z,1.97
2019-05-11T21:42:05.028Z,2.10
2019-05-11T21:44:37.220Z,1.90
2019-05-11T21:47:09.491Z,2.23
2019-05-11T21:49:41.765Z,2.00
2019-05-11T21:52:14.077Z,2.57
2019-05-11T21:54:46.305Z,1.70
2019-05-11T21:57:18.724Z,2.10
2019-05-11T21:59:51.068Z,2.33
2019-05-11T22:02:24.449Z,1.90
2019-05-11T22:04:58.576Z,1.73
2019-05-11T22:07:30.640Z,2.23
2019-05-11T22:10:02.911Z,1.77
2019-05-11T22:12:35.211Z,1.77
2019-05-11T22:15:09.294Z,1.93
2019-05-11T22:17:42.228Z,1.70
2019-05-11T22:20:14.681Z,1.80
2019-05-11T22:22:47.640Z,1.70
2019-05-11T22:25:20.145Z,2.03
2019-05-11T22:27:52.526Z,1.40
2019-05-11T22:30:24.809Z,1.83
2019-05-11T22:32:58.377Z,1.83
2019-05-11T22:35:31.042Z,1.57
2019-05-11T22:38:03.260Z,1.80
2019-05-11T22:40:35.479Z,1.67
2019-05-11T22:43:09.317Z,1.80
2019-05-11T22:45:42.899Z,1.50
2019-05-11T22:48:15.146Z,1.53
2019-05-11T22:50:48.156Z,1.67
2019-05-11T22:53:21.283Z,1.67
2019-05-11T22:55:53.525Z,1.50
2019-05-11T22:58:25.747Z,1.47
2019-05-11T23:00:59.829Z,2.10
2019-05-11T23:03:31.892Z,1.53
2019-05-11T23:06:04.095Z,1.47
2019-05-11T23:08:38.564Z,1.70
2019-05-11T23:11:10.824Z,1.57
2019-05-11T23:13:43.134Z,1.90
2019-05-11T23:16:15.361Z,1.80
2019-05-11T23:18:48.072Z,2.07
2019-05-11T23:21:20.553Z,1.70
2019-05-11T23:23:52.765Z,1.37
2019-05-11T23:26:25.015Z,1.70
2019-05-11T23:28:57.963Z,1.77
2019-05-11T23:31:31.460Z,2.10
2019-05-11T23:34:03.695Z,1.90
2019-05-11T23:36:38.132Z,1.77
2019-05-11T23:39:09.849Z,1.80
2019-05-11T23:41:42.097Z,1.50
2019-05-11T23:44:14.359Z,1.57
2019-05-11T23:46:47.828Z,1.50
2019-05-11T23:49:20.307Z,1.40
2019-05-11T23:51:52.489Z,2.07
2019-05-11T23:54:24.699Z,1.70
2019-05-11T23:56:58.330Z,2.27
2019-05-11T23:59:30.608Z,1.60
